Terminal Aerodrome Forecast
Issued by NWS Mt. Holly, NJ

Home | Current Version | Previous Version | Text Only | Print | Product List | Glossary On
Versions: 1 2 3 4 5 6 7 8 9 10 11 12 13 14 15 16 17 18 19 20 21 22 23 24 25 26 27 28 29 30 31 32 33 34 35 36 37 38 39 40 41 42
000
FTAK31 PANC 291216 AAA
TAFABE
TAF AMD
PABE 291216Z 2912/3012 10006KT P6SM SCT004 OVC035
      TEMPO 2912/2914 6SM -RA BR BKN004
     FM291500 12004KT P6SM BKN015 OVC025
     FM291800 11007KT P6SM OVC050
     FM300200 20007KT P6SM -SHRA BKN050
     FM300800 30005KT P6SM OVC050=

USA.gov is the U.S. government's official web portal to all federal, state and local government web resources and services.